sensor_id;sensor_type;location;lat;lon;timestamp;P1;durP1;ratioP1;P2;durP2;ratioP2
57856;SDS011;43683;48.650;9.290;2023-05-29T00:01:12;7.97;;;3.08;;
57856;SDS011;43683;48.650;9.290;2023-05-29T00:03:37;8.77;;;3.47;;
57856;SDS011;43683;48.650;9.290;2023-05-29T00:06:03;6.63;;;2.95;;
57856;SDS011;43683;48.650;9.290;2023-05-29T00:08:30;7.43;;;3.30;;
57856;SDS011;43683;48.650;9.290;2023-05-29T00:10:56;5.53;;;3.25;;
57856;SDS011;43683;48.650;9.290;2023-05-29T00:13:22;6.22;;;2.90;;
57856;SDS011;43683;48.650;9.290;2023-05-29T00:15:48;6.90;;;2.90;;
57856;SDS011;43683;48.650;9.290;2023-05-29T00:18:13;8.48;;;3.00;;
57856;SDS011;43683;48.650;9.290;2023-05-29T00:20:39;8.40;;;4.20;;
57856;SDS011;43683;48.650;9.290;2023-05-29T00:23:05;5.97;;;3.22;;
57856;SDS011;43683;48.650;9.290;2023-05-29T00:25:31;8.70;;;3.80;;
57856;SDS011;43683;48.650;9.290;2023-05-29T00:27:57;6.45;;;3.58;;
57856;SDS011;43683;48.650;9.290;2023-05-29T00:30:23;8.70;;;3.33;;
57856;SDS011;43683;48.650;9.290;2023-05-29T00:32:50;6.68;;;3.50;;
57856;SDS011;43683;48.650;9.290;2023-05-29T00:35:17;8.93;;;3.60;;
57856;SDS011;43683;48.650;9.290;2023-05-29T00:37:43;8.30;;;3.60;;
57856;SDS011;43683;48.650;9.290;2023-05-29T00:40:09;7.95;;;3.70;;
57856;SDS011;43683;48.650;9.290;2023-05-29T00:42:36;9.48;;;3.63;;
57856;SDS011;43683;48.650;9.290;2023-05-29T00:45:02;9.30;;;3.25;;
57856;SDS011;43683;48.650;9.290;2023-05-29T00:47:28;7.88;;;3.47;;
57856;SDS011;43683;48.650;9.290;2023-05-29T00:49:55;7.03;;;3.30;;
57856;SDS011;43683;48.650;9.290;2023-05-29T00:52:23;5.50;;;3.33;;
57856;SDS011;43683;48.650;9.290;2023-05-29T00:54:50;5.18;;;2.97;;
57856;SDS011;43683;48.650;9.290;2023-05-29T00:57:16;7.53;;;3.40;;
57856;SDS011;43683;48.650;9.290;2023-05-29T00:59:43;9.68;;;4.38;;
57856;SDS011;43683;48.650;9.290;2023-05-29T01:02:10;7.63;;;3.47;;
57856;SDS011;43683;48.650;9.290;2023-05-29T01:04:36;7.60;;;3.63;;
57856;SDS011;43683;48.650;9.290;2023-05-29T01:07:03;8.55;;;3.97;;
57856;SDS011;43683;48.650;9.290;2023-05-29T01:09:29;6.47;;;3.28;;
57856;SDS011;43683;48.650;9.290;2023-05-29T01:20:27;8.23;;;4.03;;
57856;SDS011;43683;48.650;9.290;2023-05-29T01:23:16;8.63;;;4.10;;
57856;SDS011;43683;48.650;9.290;2023-05-29T01:28:51;10.38;;;4.50;;
57856;SDS011;43683;48.650;9.290;2023-05-29T01:31:20;9.65;;;4.20;;
57856;SDS011;43683;48.650;9.290;2023-05-29T01:33:55;10.18;;;3.95;;
57856;SDS011;43683;48.650;9.290;2023-05-29T01:36:22;7.93;;;3.88;;
57856;SDS011;43683;48.650;9.290;2023-05-29T01:38:52;8.50;;;4.05;;
57856;SDS011;43683;48.650;9.290;2023-05-29T01:41:20;9.20;;;4.20;;
57856;SDS011;43683;48.650;9.290;2023-05-29T01:43:48;9.48;;;4.53;;
57856;SDS011;43683;48.650;9.290;2023-05-29T01:46:15;9.27;;;3.80;;
57856;SDS011;43683;48.650;9.290;2023-05-29T01:48:42;9.55;;;4.57;;
57856;SDS011;43683;48.650;9.290;2023-05-29T01:51:09;8.93;;;4.13;;
57856;SDS011;43683;48.650;9.290;2023-05-29T01:53:38;10.23;;;4.15;;
57856;SDS011;43683;48.650;9.290;2023-05-29T01:56:06;9.30;;;4.05;;
57856;SDS011;43683;48.650;9.290;2023-05-29T01:58:33;10.68;;;4.22;;
57856;SDS011;43683;48.650;9.290;2023-05-29T02:01:01;7.75;;;3.95;;
57856;SDS011;43683;48.650;9.290;2023-05-29T02:03:28;8.63;;;4.03;;
57856;SDS011;43683;48.650;9.290;2023-05-29T02:05:55;10.77;;;4.60;;
57856;SDS011;43683;48.650;9.290;2023-05-29T02:08:22;8.27;;;3.95;;
57856;SDS011;43683;48.650;9.290;2023-05-29T02:10:47;8.02;;;4.32;;
57856;SDS011;43683;48.650;9.290;2023-05-29T02:13:13;11.73;;;4.03;;
57856;SDS011;43683;48.650;9.290;2023-05-29T02:15:39;9.80;;;3.95;;
57856;SDS011;43683;48.650;9.290;2023-05-29T02:18:08;7.55;;;3.80;;
57856;SDS011;43683;48.650;9.290;2023-05-29T02:20:37;8.10;;;4.13;;
57856;SDS011;43683;48.650;9.290;2023-05-29T02:23:03;7.10;;;3.47;;
57856;SDS011;43683;48.650;9.290;2023-05-29T02:25:28;11.18;;;4.18;;
57856;SDS011;43683;48.650;9.290;2023-05-29T02:27:54;6.80;;;4.03;;
57856;SDS011;43683;48.650;9.290;2023-05-29T02:30:20;7.55;;;3.83;;
57856;SDS011;43683;48.650;9.290;2023-05-29T02:32:46;7.32;;;4.00;;
57856;SDS011;43683;48.650;9.290;2023-05-29T02:35:12;7.28;;;3.50;;
57856;SDS011;43683;48.650;9.290;2023-05-29T02:37:42;10.20;;;4.57;;
57856;SDS011;43683;48.650;9.290;2023-05-29T02:40:08;8.00;;;3.47;;
57856;SDS011;43683;48.650;9.290;2023-05-29T02:42:34;11.95;;;4.10;;
57856;SDS011;43683;48.650;9.290;2023-05-29T02:45:00;7.65;;;4.18;;
57856;SDS011;43683;48.650;9.290;2023-05-29T02:47:26;7.97;;;3.88;;
57856;SDS011;43683;48.650;9.290;2023-05-29T02:49:52;9.00;;;3.92;;
57856;SDS011;43683;48.650;9.290;2023-05-29T02:52:17;9.30;;;3.78;;
57856;SDS011;43683;48.650;9.290;2023-05-29T02:54:43;10.95;;;3.80;;
57856;SDS011;43683;48.650;9.290;2023-05-29T02:57:09;9.63;;;4.30;;
57856;SDS011;43683;48.650;9.290;2023-05-29T02:59:35;6.28;;;3.38;;
57856;SDS011;43683;48.650;9.290;2023-05-29T03:02:01;7.97;;;3.88;;
57856;SDS011;43683;48.650;9.290;2023-05-29T03:04:27;7.43;;;4.00;;
57856;SDS011;43683;48.650;9.290;2023-05-29T03:06:53;6.53;;;3.67;;
57856;SDS011;43683;48.650;9.290;2023-05-29T03:09:19;6.70;;;3.30;;
57856;SDS011;43683;48.650;9.290;2023-05-29T03:11:45;8.55;;;4.05;;
57856;SDS011;43683;48.650;9.290;2023-05-29T03:14:12;7.82;;;3.70;;
57856;SDS011;43683;48.650;9.290;2023-05-29T03:16:38;10.60;;;4.20;;
57856;SDS011;43683;48.650;9.290;2023-05-29T03:19:05;7.07;;;3.60;;
57856;SDS011;43683;48.650;9.290;2023-05-29T03:21:32;9.43;;;3.88;;
57856;SDS011;43683;48.650;9.290;2023-05-29T03:23:58;9.63;;;4.30;;
57856;SDS011;43683;48.650;9.290;2023-05-29T03:26:25;9.63;;;4.78;;
57856;SDS011;43683;48.650;9.290;2023-05-29T03:28:51;7.63;;;4.07;;
57856;SDS011;43683;48.650;9.290;2023-05-29T03:31:17;10.18;;;4.00;;
57856;SDS011;43683;48.650;9.290;2023-05-29T03:33:43;8.52;;;4.10;;
57856;SDS011;43683;48.650;9.290;2023-05-29T03:36:08;7.85;;;3.75;;
57856;SDS011;43683;48.650;9.290;2023-05-29T03:38:34;6.65;;;4.00;;
57856;SDS011;43683;48.650;9.290;2023-05-29T03:41:00;8.82;;;4.82;;
57856;SDS011;43683;48.650;9.290;2023-05-29T03:43:26;8.90;;;4.63;;
57856;SDS011;43683;48.650;9.290;2023-05-29T03:45:51;11.30;;;5.65;;
57856;SDS011;43683;48.650;9.290;2023-05-29T03:48:17;8.90;;;5.22;;
57856;SDS011;43683;48.650;9.290;2023-05-29T03:50:44;8.80;;;4.20;;
57856;SDS011;43683;48.650;9.290;2023-05-29T03:55:36;8.43;;;4.82;;
57856;SDS011;43683;48.650;9.290;2023-05-29T03:58:02;9.30;;;4.50;;
57856;SDS011;43683;48.650;9.290;2023-05-29T04:00:27;11.07;;;4.80;;
57856;SDS011;43683;48.650;9.290;2023-05-29T04:02:54;8.10;;;4.22;;
57856;SDS011;43683;48.650;9.290;2023-05-29T04:05:20;7.90;;;4.40;;
57856;SDS011;43683;48.650;9.290;2023-05-29T04:07:46;9.65;;;4.32;;
57856;SDS011;43683;48.650;9.290;2023-05-29T04:10:11;8.10;;;4.07;;
57856;SDS011;43683;48.650;9.290;2023-05-29T04:12:37;8.10;;;4.18;;
57856;SDS011;43683;48.650;9.290;2023-05-29T04:15:03;8.82;;;4.53;;
57856;SDS011;43683;48.650;9.290;2023-05-29T04:17:30;9.48;;;4.25;;
57856;SDS011;43683;48.650;9.290;2023-05-29T04:19:55;7.28;;;3.90;;
57856;SDS011;43683;48.650;9.290;2023-05-29T04:22:21;9.05;;;4.75;;
57856;SDS011;43683;48.650;9.290;2023-05-29T04:24:47;10.07;;;4.50;;
57856;SDS011;43683;48.650;9.290;2023-05-29T04:27:13;8.30;;;4.40;;
57856;SDS011;43683;48.650;9.290;2023-05-29T04:29:39;7.28;;;4.30;;
57856;SDS011;43683;48.650;9.290;2023-05-29T04:32:07;12.27;;;4.78;;
57856;SDS011;43683;48.650;9.290;2023-05-29T04:34:34;10.10;;;4.55;;
57856;SDS011;43683;48.650;9.290;2023-05-29T04:37:01;9.13;;;4.78;;
57856;SDS011;43683;48.650;9.290;2023-05-29T04:39:28;8.50;;;4.03;;
57856;SDS011;43683;48.650;9.290;2023-05-29T04:41:54;7.55;;;4.72;;
57856;SDS011;43683;48.650;9.290;2023-05-29T04:44:23;8.55;;;4.45;;
57856;SDS011;43683;48.650;9.290;2023-05-29T04:49:17;9.18;;;4.28;;
57856;SDS011;43683;48.650;9.290;2023-05-29T04:51:43;8.73;;;4.55;;
57856;SDS011;43683;48.650;9.290;2023-05-29T04:54:10;11.02;;;4.72;;
57856;SDS011;43683;48.650;9.290;2023-05-29T04:56:36;9.57;;;4.60;;
57856;SDS011;43683;48.650;9.290;2023-05-29T04:59:02;8.75;;;4.35;;
57856;SDS011;43683;48.650;9.290;2023-05-29T05:01:28;8.13;;;4.25;;
57856;SDS011;43683;48.650;9.290;2023-05-29T05:03:54;8.25;;;5.00;;
57856;SDS011;43683;48.650;9.290;2023-05-29T05:06:23;8.15;;;4.20;;
57856;SDS011;43683;48.650;9.290;2023-05-29T05:08:51;10.48;;;4.30;;
57856;SDS011;43683;48.650;9.290;2023-05-29T05:11:18;8.85;;;4.70;;
57856;SDS011;43683;48.650;9.290;2023-05-29T05:13:44;7.38;;;4.90;;
57856;SDS011;43683;48.650;9.290;2023-05-29T05:16:09;8.63;;;4.60;;
57856;SDS011;43683;48.650;9.290;2023-05-29T05:18:35;11.35;;;4.82;;
57856;SDS011;43683;48.650;9.290;2023-05-29T05:21:01;13.20;;;4.85;;
57856;SDS011;43683;48.650;9.290;2023-05-29T05:23:28;8.80;;;4.60;;
57856;SDS011;43683;48.650;9.290;2023-05-29T05:25:54;6.97;;;4.40;;
57856;SDS011;43683;48.650;9.290;2023-05-29T05:28:20;10.30;;;4.63;;
57856;SDS011;43683;48.650;9.290;2023-05-29T05:30:46;9.20;;;4.60;;
57856;SDS011;43683;48.650;9.290;2023-05-29T05:33:12;8.80;;;4.57;;
57856;SDS011;43683;48.650;9.290;2023-05-29T05:35:38;8.90;;;4.28;;
57856;SDS011;43683;48.650;9.290;2023-05-29T05:38:03;9.77;;;4.75;;
57856;SDS011;43683;48.650;9.290;2023-05-29T05:40:29;7.90;;;3.88;;
57856;SDS011;43683;48.650;9.290;2023-05-29T05:42:54;8.23;;;3.60;;
57856;SDS011;43683;48.650;9.290;2023-05-29T05:45:20;8.98;;;4.43;;
57856;SDS011;43683;48.650;9.290;2023-05-29T05:47:46;7.70;;;3.22;;
57856;SDS011;43683;48.650;9.290;2023-05-29T05:50:12;7.47;;;3.95;;
57856;SDS011;43683;48.650;9.290;2023-05-29T05:52:38;7.53;;;4.28;;
57856;SDS011;43683;48.650;9.290;2023-05-29T05:55:04;7.13;;;3.63;;
57856;SDS011;43683;48.650;9.290;2023-05-29T05:57:30;6.90;;;4.20;;
57856;SDS011;43683;48.650;9.290;2023-05-29T05:59:58;8.65;;;4.15;;
57856;SDS011;43683;48.650;9.290;2023-05-29T06:02:36;7.65;;;3.95;;
57856;SDS011;43683;48.650;9.290;2023-05-29T06:05:09;7.70;;;3.45;;
57856;SDS011;43683;48.650;9.290;2023-05-29T06:07:36;6.70;;;3.97;;
57856;SDS011;43683;48.650;9.290;2023-05-29T06:10:03;8.73;;;4.43;;
57856;SDS011;43683;48.650;9.290;2023-05-29T06:12:29;6.43;;;3.30;;
57856;SDS011;43683;48.650;9.290;2023-05-29T06:14:55;7.45;;;3.97;;
57856;SDS011;43683;48.650;9.290;2023-05-29T06:17:22;7.63;;;3.92;;
57856;SDS011;43683;48.650;9.290;2023-05-29T06:19:48;8.75;;;3.70;;
57856;SDS011;43683;48.650;9.290;2023-05-29T06:22:14;9.05;;;3.72;;
57856;SDS011;43683;48.650;9.290;2023-05-29T06:24:40;6.72;;;3.70;;
57856;SDS011;43683;48.650;9.290;2023-05-29T06:27:05;7.25;;;4.32;;
57856;SDS011;43683;48.650;9.290;2023-05-29T06:29:31;6.05;;;3.17;;
57856;SDS011;43683;48.650;9.290;2023-05-29T06:31:57;7.53;;;3.65;;
57856;SDS011;43683;48.650;9.290;2023-05-29T06:34:23;8.77;;;4.13;;
57856;SDS011;43683;48.650;9.290;2023-05-29T06:36:49;6.60;;;3.40;;
57856;SDS011;43683;48.650;9.290;2023-05-29T06:39:14;7.10;;;3.65;;
57856;SDS011;43683;48.650;9.290;2023-05-29T06:41:40;6.93;;;3.60;;
57856;SDS011;43683;48.650;9.290;2023-05-29T06:44:06;6.50;;;3.35;;
57856;SDS011;43683;48.650;9.290;2023-05-29T06:46:31;6.70;;;3.65;;
57856;SDS011;43683;48.650;9.290;2023-05-29T06:48:57;7.38;;;3.13;;
57856;SDS011;43683;48.650;9.290;2023-05-29T06:51:22;6.13;;;3.08;;
57856;SDS011;43683;48.650;9.290;2023-05-29T06:53:48;6.40;;;3.20;;
57856;SDS011;43683;48.650;9.290;2023-05-29T06:56:13;8.93;;;3.25;;
57856;SDS011;43683;48.650;9.290;2023-05-29T06:58:39;6.88;;;3.17;;
57856;SDS011;43683;48.650;9.290;2023-05-29T07:01:05;6.80;;;3.00;;
57856;SDS011;43683;48.650;9.290;2023-05-29T07:03:30;6.72;;;3.30;;
57856;SDS011;43683;48.650;9.290;2023-05-29T07:05:56;6.75;;;3.22;;
57856;SDS011;43683;48.650;9.290;2023-05-29T07:08:22;8.60;;;3.60;;
57856;SDS011;43683;48.650;9.290;2023-05-29T07:10:48;7.97;;;3.22;;
57856;SDS011;43683;48.650;9.290;2023-05-29T07:13:15;7.93;;;3.25;;
57856;SDS011;43683;48.650;9.290;2023-05-29T07:15:41;6.18;;;3.33;;
57856;SDS011;43683;48.650;9.290;2023-05-29T07:18:07;5.35;;;2.90;;
57856;SDS011;43683;48.650;9.290;2023-05-29T07:20:32;6.93;;;3.17;;
57856;SDS011;43683;48.650;9.290;2023-05-29T07:22:58;6.47;;;3.00;;
57856;SDS011;43683;48.650;9.290;2023-05-29T07:25:23;6.97;;;3.55;;
57856;SDS011;43683;48.650;9.290;2023-05-29T07:27:49;6.40;;;3.53;;
57856;SDS011;43683;48.650;9.290;2023-05-29T07:30:14;6.32;;;3.15;;
57856;SDS011;43683;48.650;9.290;2023-05-29T07:32:40;5.47;;;3.38;;
57856;SDS011;43683;48.650;9.290;2023-05-29T07:35:06;6.05;;;3.05;;
57856;SDS011;43683;48.650;9.290;2023-05-29T07:37:31;6.15;;;2.90;;
57856;SDS011;43683;48.650;9.290;2023-05-29T07:39:57;6.28;;;3.03;;
57856;SDS011;43683;48.650;9.290;2023-05-29T07:42:23;6.38;;;3.13;;
57856;SDS011;43683;48.650;9.290;2023-05-29T07:44:48;6.30;;;3.35;;
57856;SDS011;43683;48.650;9.290;2023-05-29T07:47:14;5.85;;;3.00;;
57856;SDS011;43683;48.650;9.290;2023-05-29T07:49:40;7.13;;;3.20;;
57856;SDS011;43683;48.650;9.290;2023-05-29T07:52:05;6.28;;;3.35;;
57856;SDS011;43683;48.650;9.290;2023-05-29T07:54:31;6.90;;;3.40;;
57856;SDS011;43683;48.650;9.290;2023-05-29T07:56:58;6.13;;;3.45;;
57856;SDS011;43683;48.650;9.290;2023-05-29T07:59:24;6.03;;;3.17;;
57856;SDS011;43683;48.650;9.290;2023-05-29T08:01:50;7.63;;;3.55;;
57856;SDS011;43683;48.650;9.290;2023-05-29T08:04:16;6.57;;;3.40;;
57856;SDS011;43683;48.650;9.290;2023-05-29T08:06:41;6.10;;;3.00;;
57856;SDS011;43683;48.650;9.290;2023-05-29T08:09:08;8.68;;;3.42;;
57856;SDS011;43683;48.650;9.290;2023-05-29T08:11:35;9.77;;;3.55;;
57856;SDS011;43683;48.650;9.290;2023-05-29T08:14:01;9.35;;;3.40;;
57856;SDS011;43683;48.650;9.290;2023-05-29T08:16:27;7.30;;;3.05;;
57856;SDS011;43683;48.650;9.290;2023-05-29T08:18:52;5.40;;;3.25;;
57856;SDS011;43683;48.650;9.290;2023-05-29T08:21:18;9.10;;;3.30;;
57856;SDS011;43683;48.650;9.290;2023-05-29T08:23:44;4.80;;;2.85;;
57856;SDS011;43683;48.650;9.290;2023-05-29T08:26:10;5.90;;;3.08;;
57856;SDS011;43683;48.650;9.290;2023-05-29T08:28:35;6.03;;;3.13;;
57856;SDS011;43683;48.650;9.290;2023-05-29T08:31:01;7.28;;;3.08;;
57856;SDS011;43683;48.650;9.290;2023-05-29T08:33:26;6.78;;;3.22;;
57856;SDS011;43683;48.650;9.290;2023-05-29T08:35:52;6.72;;;3.13;;
57856;SDS011;43683;48.650;9.290;2023-05-29T08:38:18;8.48;;;3.40;;
57856;SDS011;43683;48.650;9.290;2023-05-29T08:43:12;5.97;;;2.95;;
57856;SDS011;43683;48.650;9.290;2023-05-29T08:45:44;8.68;;;3.42;;
57856;SDS011;43683;48.650;9.290;2023-05-29T08:48:10;6.18;;;3.25;;
57856;SDS011;43683;48.650;9.290;2023-05-29T08:50:42;6.18;;;3.30;;
57856;SDS011;43683;48.650;9.290;2023-05-29T08:53:10;4.57;;;2.90;;
57856;SDS011;43683;48.650;9.290;2023-05-29T08:55:36;6.63;;;3.28;;
57856;SDS011;43683;48.650;9.290;2023-05-29T08:58:01;6.68;;;2.83;;
57856;SDS011;43683;48.650;9.290;2023-05-29T09:00:27;7.20;;;3.60;;
57856;SDS011;43683;48.650;9.290;2023-05-29T09:02:54;7.50;;;3.43;;
57856;SDS011;43683;48.650;9.290;2023-05-29T09:05:20;5.70;;;3.00;;
57856;SDS011;43683;48.650;9.290;2023-05-29T09:07:46;8.33;;;3.47;;
57856;SDS011;43683;48.650;9.290;2023-05-29T09:10:14;6.38;;;3.38;;
57856;SDS011;43683;48.650;9.290;2023-05-29T09:12:40;6.90;;;3.63;;
57856;SDS011;43683;48.650;9.290;2023-05-29T09:15:19;6.22;;;2.83;;
57856;SDS011;43683;48.650;9.290;2023-05-29T09:17:53;8.68;;;3.65;;
57856;SDS011;43683;48.650;9.290;2023-05-29T09:20:20;5.72;;;2.90;;
57856;SDS011;43683;48.650;9.290;2023-05-29T09:25:22;6.47;;;3.08;;
57856;SDS011;43683;48.650;9.290;2023-05-29T09:27:53;7.63;;;3.60;;
57856;SDS011;43683;48.650;9.290;2023-05-29T09:30:33;6.57;;;3.42;;
57856;SDS011;43683;48.650;9.290;2023-05-29T09:33:09;6.07;;;3.00;;
57856;SDS011;43683;48.650;9.290;2023-05-29T09:38:06;6.65;;;3.30;;
57856;SDS011;43683;48.650;9.290;2023-05-29T09:40:33;6.82;;;3.13;;
57856;SDS011;43683;48.650;9.290;2023-05-29T09:43:04;7.50;;;4.47;;
57856;SDS011;43683;48.650;9.290;2023-05-29T09:45:30;7.88;;;2.88;;
57856;SDS011;43683;48.650;9.290;2023-05-29T09:47:56;6.17;;;3.20;;
57856;SDS011;43683;48.650;9.290;2023-05-29T09:50:25;5.78;;;2.60;;
57856;SDS011;43683;48.650;9.290;2023-05-29T09:52:51;6.25;;;2.92;;
57856;SDS011;43683;48.650;9.290;2023-05-29T09:55:21;4.22;;;2.90;;
57856;SDS011;43683;48.650;9.290;2023-05-29T09:57:48;5.18;;;2.60;;
57856;SDS011;43683;48.650;9.290;2023-05-29T10:00:15;5.50;;;2.97;;
57856;SDS011;43683;48.650;9.290;2023-05-29T10:02:42;7.22;;;3.08;;
57856;SDS011;43683;48.650;9.290;2023-05-29T10:05:07;6.15;;;2.88;;
57856;SDS011;43683;48.650;9.290;2023-05-29T10:07:35;6.32;;;3.08;;
57856;SDS011;43683;48.650;9.290;2023-05-29T10:10:05;6.25;;;3.03;;
57856;SDS011;43683;48.650;9.290;2023-05-29T10:12:34;4.82;;;2.35;;
57856;SDS011;43683;48.650;9.290;2023-05-29T10:15:03;5.68;;;2.58;;
57856;SDS011;43683;48.650;9.290;2023-05-29T10:17:35;5.90;;;2.78;;
57856;SDS011;43683;48.650;9.290;2023-05-29T10:20:04;4.65;;;2.20;;
57856;SDS011;43683;48.650;9.290;2023-05-29T10:22:35;6.22;;;2.80;;
57856;SDS011;43683;48.650;9.290;2023-05-29T10:25:05;5.43;;;2.20;;
57856;SDS011;43683;48.650;9.290;2023-05-29T10:32:54;5.88;;;2.58;;
57856;SDS011;43683;48.650;9.290;2023-05-29T10:35:39;6.97;;;2.65;;
57856;SDS011;43683;48.650;9.290;2023-05-29T10:38:12;3.88;;;2.13;;
57856;SDS011;43683;48.650;9.290;2023-05-29T10:40:40;5.20;;;2.70;;
57856;SDS011;43683;48.650;9.290;2023-05-29T10:43:05;4.78;;;2.28;;
57856;SDS011;43683;48.650;9.290;2023-05-29T10:50:44;6.05;;;2.67;;
57856;SDS011;43683;48.650;9.290;2023-05-29T10:53:15;4.43;;;2.35;;
57856;SDS011;43683;48.650;9.290;2023-05-29T10:55:42;5.40;;;2.97;;
57856;SDS011;43683;48.650;9.290;2023-05-29T10:58:14;3.72;;;2.30;;
57856;SDS011;43683;48.650;9.290;2023-05-29T11:00:44;7.18;;;3.03;;
57856;SDS011;43683;48.650;9.290;2023-05-29T11:03:20;4.10;;;2.17;;
57856;SDS011;43683;48.650;9.290;2023-05-29T11:08:34;5.72;;;2.40;;
57856;SDS011;43683;48.650;9.290;2023-05-29T11:11:01;7.13;;;2.50;;
57856;SDS011;43683;48.650;9.290;2023-05-29T11:16:11;5.07;;;2.80;;
57856;SDS011;43683;48.650;9.290;2023-05-29T11:18:43;4.90;;;2.55;;
57856;SDS011;43683;48.650;9.290;2023-05-29T11:24:07;4.70;;;2.30;;
57856;SDS011;43683;48.650;9.290;2023-05-29T11:26:37;4.57;;;2.50;;
57856;SDS011;43683;48.650;9.290;2023-05-29T11:29:03;5.83;;;2.73;;
57856;SDS011;43683;48.650;9.290;2023-05-29T11:31:31;4.82;;;2.42;;
57856;SDS011;43683;48.650;9.290;2023-05-29T11:33:59;3.22;;;2.08;;
57856;SDS011;43683;48.650;9.290;2023-05-29T11:36:27;4.80;;;2.42;;
57856;SDS011;43683;48.650;9.290;2023-05-29T11:38:53;5.47;;;2.80;;
57856;SDS011;43683;48.650;9.290;2023-05-29T11:41:19;3.73;;;2.23;;
57856;SDS011;43683;48.650;9.290;2023-05-29T11:43:51;3.22;;;2.30;;
57856;SDS011;43683;48.650;9.290;2023-05-29T11:46:21;5.13;;;2.47;;
57856;SDS011;43683;48.650;9.290;2023-05-29T11:48:47;4.40;;;2.45;;
57856;SDS011;43683;48.650;9.290;2023-05-29T11:51:13;4.23;;;2.83;;
57856;SDS011;43683;48.650;9.290;2023-05-29T11:53:42;3.73;;;2.17;;
57856;SDS011;43683;48.650;9.290;2023-05-29T11:56:08;4.05;;;2.15;;
57856;SDS011;43683;48.650;9.290;2023-05-29T11:58:36;4.80;;;2.28;;
57856;SDS011;43683;48.650;9.290;2023-05-29T12:01:05;7.13;;;2.38;;
57856;SDS011;43683;48.650;9.290;2023-05-29T12:06:08;6.72;;;2.22;;
57856;SDS011;43683;48.650;9.290;2023-05-29T12:08:35;4.95;;;2.40;;
57856;SDS011;43683;48.650;9.290;2023-05-29T12:11:01;3.92;;;1.88;;
57856;SDS011;43683;48.650;9.290;2023-05-29T12:13:27;6.63;;;2.83;;
57856;SDS011;43683;48.650;9.290;2023-05-29T12:15:54;4.23;;;2.23;;
57856;SDS011;43683;48.650;9.290;2023-05-29T12:18:22;6.25;;;2.28;;
57856;SDS011;43683;48.650;9.290;2023-05-29T12:20:48;6.17;;;2.60;;
57856;SDS011;43683;48.650;9.290;2023-05-29T12:23:14;4.33;;;2.07;;
57856;SDS011;43683;48.650;9.290;2023-05-29T12:25:44;4.50;;;2.10;;
57856;SDS011;43683;48.650;9.290;2023-05-29T12:28:11;6.25;;;2.30;;
57856;SDS011;43683;48.650;9.290;2023-05-29T12:30:42;4.95;;;2.00;;
57856;SDS011;43683;48.650;9.290;2023-05-29T12:33:08;4.80;;;2.25;;
57856;SDS011;43683;48.650;9.290;2023-05-29T12:35:34;5.27;;;2.10;;
57856;SDS011;43683;48.650;9.290;2023-05-29T12:38:01;3.77;;;2.03;;
57856;SDS011;43683;48.650;9.290;2023-05-29T12:40:30;3.78;;;2.20;;
57856;SDS011;43683;48.650;9.290;2023-05-29T12:42:59;4.72;;;2.00;;
57856;SDS011;43683;48.650;9.290;2023-05-29T12:45:28;3.47;;;1.90;;
57856;SDS011;43683;48.650;9.290;2023-05-29T12:47:56;5.30;;;2.38;;
57856;SDS011;43683;48.650;9.290;2023-05-29T12:50:30;4.72;;;2.10;;
57856;SDS011;43683;48.650;9.290;2023-05-29T12:55:25;4.05;;;2.03;;
57856;SDS011;43683;48.650;9.290;2023-05-29T12:57:51;4.72;;;2.22;;
57856;SDS011;43683;48.650;9.290;2023-05-29T13:00:18;6.55;;;2.22;;
57856;SDS011;43683;48.650;9.290;2023-05-29T13:02:44;4.03;;;1.85;;
57856;SDS011;43683;48.650;9.290;2023-05-29T13:07:37;4.57;;;2.05;;
57856;SDS011;43683;48.650;9.290;2023-05-29T13:10:03;4.93;;;2.20;;
57856;SDS011;43683;48.650;9.290;2023-05-29T13:12:28;5.00;;;2.27;;
57856;SDS011;43683;48.650;9.290;2023-05-29T13:14:54;4.50;;;2.30;;
57856;SDS011;43683;48.650;9.290;2023-05-29T13:17:22;5.18;;;2.38;;
57856;SDS011;43683;48.650;9.290;2023-05-29T13:19:48;5.47;;;2.53;;
57856;SDS011;43683;48.650;9.290;2023-05-29T13:22:13;5.27;;;1.93;;
57856;SDS011;43683;48.650;9.290;2023-05-29T13:24:39;4.40;;;2.07;;
57856;SDS011;43683;48.650;9.290;2023-05-29T13:27:05;4.90;;;2.47;;
57856;SDS011;43683;48.650;9.290;2023-05-29T13:29:31;6.30;;;2.20;;
57856;SDS011;43683;48.650;9.290;2023-05-29T13:31:56;4.10;;;2.10;;
57856;SDS011;43683;48.650;9.290;2023-05-29T13:34:22;5.07;;;2.20;;
57856;SDS011;43683;48.650;9.290;2023-05-29T13:36:50;5.85;;;2.00;;
57856;SDS011;43683;48.650;9.290;2023-05-29T13:39:16;5.53;;;2.23;;
57856;SDS011;43683;48.650;9.290;2023-05-29T13:41:41;5.77;;;2.10;;
57856;SDS011;43683;48.650;9.290;2023-05-29T13:44:07;5.13;;;2.20;;
57856;SDS011;43683;48.650;9.290;2023-05-29T13:46:32;4.17;;;2.40;;
57856;SDS011;43683;48.650;9.290;2023-05-29T13:48:58;4.40;;;2.33;;
57856;SDS011;43683;48.650;9.290;2023-05-29T13:51:23;5.13;;;2.13;;
57856;SDS011;43683;48.650;9.290;2023-05-29T13:53:49;5.20;;;2.87;;
57856;SDS011;43683;48.650;9.290;2023-05-29T13:56:14;4.93;;;2.27;;
57856;SDS011;43683;48.650;9.290;2023-05-29T13:58:40;4.97;;;2.40;;
57856;SDS011;43683;48.650;9.290;2023-05-29T14:01:05;5.53;;;2.63;;
57856;SDS011;43683;48.650;9.290;2023-05-29T14:03:31;4.90;;;2.13;;
57856;SDS011;43683;48.650;9.290;2023-05-29T14:05:57;5.67;;;2.07;;
57856;SDS011;43683;48.650;9.290;2023-05-29T14:08:22;5.10;;;2.50;;
57856;SDS011;43683;48.650;9.290;2023-05-29T14:10:48;3.40;;;2.17;;
57856;SDS011;43683;48.650;9.290;2023-05-29T14:13:15;3.97;;;1.90;;
57856;SDS011;43683;48.650;9.290;2023-05-29T14:15:41;4.77;;;2.60;;
57856;SDS011;43683;48.650;9.290;2023-05-29T14:18:06;4.23;;;2.30;;
57856;SDS011;43683;48.650;9.290;2023-05-29T14:20:33;4.32;;;2.13;;
57856;SDS011;43683;48.650;9.290;2023-05-29T14:22:58;5.27;;;2.20;;
57856;SDS011;43683;48.650;9.290;2023-05-29T14:25:24;4.37;;;2.47;;
57856;SDS011;43683;48.650;9.290;2023-05-29T14:27:49;4.43;;;2.43;;
57856;SDS011;43683;48.650;9.290;2023-05-29T14:30:15;5.20;;;2.40;;
57856;SDS011;43683;48.650;9.290;2023-05-29T14:32:40;4.37;;;2.17;;
57856;SDS011;43683;48.650;9.290;2023-05-29T14:35:07;4.80;;;2.55;;
57856;SDS011;43683;48.650;9.290;2023-05-29T14:37:33;4.87;;;2.30;;
57856;SDS011;43683;48.650;9.290;2023-05-29T14:39:58;3.80;;;2.30;;
57856;SDS011;43683;48.650;9.290;2023-05-29T14:42:24;6.00;;;2.50;;
57856;SDS011;43683;48.650;9.290;2023-05-29T14:44:49;5.13;;;2.47;;
57856;SDS011;43683;48.650;9.290;2023-05-29T14:47:15;5.53;;;2.40;;
57856;SDS011;43683;48.650;9.290;2023-05-29T14:49:40;6.10;;;2.30;;
57856;SDS011;43683;48.650;9.290;2023-05-29T14:52:06;5.03;;;2.30;;
57856;SDS011;43683;48.650;9.290;2023-05-29T14:54:31;5.30;;;2.50;;
57856;SDS011;43683;48.650;9.290;2023-05-29T14:56:57;4.63;;;2.10;;
57856;SDS011;43683;48.650;9.290;2023-05-29T14:59:23;5.23;;;2.33;;
57856;SDS011;43683;48.650;9.290;2023-05-29T15:01:49;5.35;;;2.50;;
57856;SDS011;43683;48.650;9.290;2023-05-29T15:04:15;5.10;;;2.30;;
57856;SDS011;43683;48.650;9.290;2023-05-29T15:06:41;4.63;;;2.20;;
57856;SDS011;43683;48.650;9.290;2023-05-29T15:09:06;4.57;;;2.37;;
57856;SDS011;43683;48.650;9.290;2023-05-29T15:11:32;3.27;;;2.00;;
57856;SDS011;43683;48.650;9.290;2023-05-29T15:13:57;5.47;;;2.03;;
57856;SDS011;43683;48.650;9.290;2023-05-29T15:16:23;4.47;;;2.20;;
57856;SDS011;43683;48.650;9.290;2023-05-29T15:18:49;5.07;;;2.53;;
57856;SDS011;43683;48.650;9.290;2023-05-29T15:21:15;3.90;;;2.13;;
57856;SDS011;43683;48.650;9.290;2023-05-29T15:23:40;5.50;;;2.50;;
57856;SDS011;43683;48.650;9.290;2023-05-29T15:26:08;3.92;;;2.13;;
57856;SDS011;43683;48.650;9.290;2023-05-29T15:28:34;4.97;;;2.00;;
57856;SDS011;43683;48.650;9.290;2023-05-29T15:31:00;5.33;;;2.30;;
57856;SDS011;43683;48.650;9.290;2023-05-29T15:33:25;3.70;;;2.30;;
57856;SDS011;43683;48.650;9.290;2023-05-29T15:35:51;4.87;;;1.93;;